Aviation Digital Data Service (ADDS)

Output produced by METARs form (0421 UTC 26 May 2022)
found at http://www.aviationweather.gov/metar/data/
 
KGXY 260356Z 21005KT 10SM CLR 15/01 A3001 RMK AO2 SLP139 T01500011 $